sensor_id;sensor_type;location;lat;lon;timestamp;pressure;altitude;pressure_sealevel;temperature;humidity
44988;BME280;35735;52.226;21.254;2022-10-31T00:02:19;100702.56;;;8.74;100.00
44988;BME280;35735;52.226;21.254;2022-10-31T00:07:19;100703.44;;;8.73;100.00
44988;BME280;35735;52.226;21.254;2022-10-31T00:12:20;100704.19;;;8.61;100.00
44988;BME280;35735;52.226;21.254;2022-10-31T00:17:20;100700.63;;;8.62;100.00
44988;BME280;35735;52.226;21.254;2022-10-31T00:22:21;100704.19;;;8.61;100.00
44988;BME280;35735;52.226;21.254;2022-10-31T00:27:21;100705.72;;;8.41;100.00
44988;BME280;35735;52.226;21.254;2022-10-31T00:32:22;100706.50;;;8.32;100.00
44988;BME280;35735;52.226;21.254;2022-10-31T00:37:22;100707.44;;;8.35;100.00
44988;BME280;35735;52.226;21.254;2022-10-31T00:42:23;100712.66;;;8.26;100.00
44988;BME280;35735;52.226;21.254;2022-10-31T00:47:24;100718.78;;;8.14;100.00
44988;BME280;35735;52.226;21.254;2022-10-31T00:52:25;100724.22;;;8.19;100.00
44988;BME280;35735;52.226;21.254;2022-10-31T00:57:25;100708.13;;;8.21;100.00
44988;BME280;35735;52.226;21.254;2022-10-31T01:02:26;100716.22;;;8.22;100.00
44988;BME280;35735;52.226;21.254;2022-10-31T01:07:26;100723.25;;;8.14;100.00
44988;BME280;35735;52.226;21.254;2022-10-31T01:12:27;100723.03;;;7.98;100.00
44988;BME280;35735;52.226;21.254;2022-10-31T01:17:27;100728.25;;;7.89;100.00
44988;BME280;35735;52.226;21.254;2022-10-31T01:22:28;100735.31;;;7.83;100.00
44988;BME280;35735;52.226;21.254;2022-10-31T01:27:28;100729.78;;;7.72;100.00
44988;BME280;35735;52.226;21.254;2022-10-31T01:32:29;100728.78;;;7.67;100.00
44988;BME280;35735;52.226;21.254;2022-10-31T01:37:30;100730.53;;;7.65;100.00
44988;BME280;35735;52.226;21.254;2022-10-31T01:42:31;100722.41;;;7.61;100.00
44988;BME280;35735;52.226;21.254;2022-10-31T01:47:42;100731.34;;;7.59;100.00
44988;BME280;35735;52.226;21.254;2022-10-31T01:52:47;100732.22;;;7.58;100.00
44988;BME280;35735;52.226;21.254;2022-10-31T01:57:52;100736.75;;;7.60;100.00
44988;BME280;35735;52.226;21.254;2022-10-31T02:02:55;100733.94;;;7.54;100.00
44988;BME280;35735;52.226;21.254;2022-10-31T02:08:02;100736.50;;;7.45;100.00
44988;BME280;35735;52.226;21.254;2022-10-31T02:13:07;100740.19;;;7.53;100.00
44988;BME280;35735;52.226;21.254;2022-10-31T02:18:08;100734.94;;;7.59;100.00
44988;BME280;35735;52.226;21.254;2022-10-31T02:34:45;100741.63;;;7.33;100.00
44988;BME280;35735;52.226;21.254;2022-10-31T02:40:30;100738.03;;;7.32;100.00
44988;BME280;35735;52.226;21.254;2022-10-31T02:46:04;100739.69;;;7.24;100.00
44988;BME280;35735;52.226;21.254;2022-10-31T02:51:09;100734.22;;;7.19;100.00
44988;BME280;35735;52.226;21.254;2022-10-31T02:56:15;100733.06;;;7.07;100.00
44988;BME280;35735;52.226;21.254;2022-10-31T03:07:08;100743.72;;;7.00;100.00
44988;BME280;35735;52.226;21.254;2022-10-31T03:12:44;100740.22;;;7.06;100.00
44988;BME280;35735;52.226;21.254;2022-10-31T03:18:09;100741.22;;;7.11;100.00
44988;BME280;35735;52.226;21.254;2022-10-31T03:23:18;100754.69;;;7.14;100.00
44988;BME280;35735;52.226;21.254;2022-10-31T03:28:23;100754.63;;;7.11;100.00
44988;BME280;35735;52.226;21.254;2022-10-31T03:33:31;100757.25;;;7.08;100.00
44988;BME280;35735;52.226;21.254;2022-10-31T03:38:35;100755.28;;;6.98;100.00
44988;BME280;35735;52.226;21.254;2022-10-31T03:43:40;100765.19;;;7.00;100.00
44988;BME280;35735;52.226;21.254;2022-10-31T03:48:43;100770.59;;;7.02;100.00
44988;BME280;35735;52.226;21.254;2022-10-31T03:53:51;100775.69;;;6.90;100.00
44988;BME280;35735;52.226;21.254;2022-10-31T04:04:18;100778.75;;;6.65;100.00
44988;BME280;35735;52.226;21.254;2022-10-31T04:09:20;100778.75;;;6.65;100.00
44988;BME280;35735;52.226;21.254;2022-10-31T04:14:24;100780.56;;;6.65;100.00
44988;BME280;35735;52.226;21.254;2022-10-31T04:19:25;100788.47;;;6.59;100.00
44988;BME280;35735;52.226;21.254;2022-10-31T04:24:26;100787.44;;;6.54;100.00
44988;BME280;35735;52.226;21.254;2022-10-31T04:29:26;100790.84;;;6.46;100.00
44988;BME280;35735;52.226;21.254;2022-10-31T04:34:27;100795.28;;;6.44;100.00
44988;BME280;35735;52.226;21.254;2022-10-31T04:39:28;100795.44;;;6.51;100.00
44988;BME280;35735;52.226;21.254;2022-10-31T04:44:29;100796.31;;;6.51;100.00
44988;BME280;35735;52.226;21.254;2022-10-31T04:49:29;100798.81;;;6.42;100.00
44988;BME280;35735;52.226;21.254;2022-10-31T04:54:30;100799.34;;;6.27;100.00
44988;BME280;35735;52.226;21.254;2022-10-31T04:59:30;100804.66;;;6.24;100.00
44988;BME280;35735;52.226;21.254;2022-10-31T05:04:31;100806.47;;;6.26;100.00
44988;BME280;35735;52.226;21.254;2022-10-31T05:09:32;100815.38;;;6.24;100.00
44988;BME280;35735;52.226;21.254;2022-10-31T05:14:32;100811.25;;;6.38;100.00
44988;BME280;35735;52.226;21.254;2022-10-31T05:19:33;100817.50;;;6.39;100.00
44988;BME280;35735;52.226;21.254;2022-10-31T05:24:33;100818.56;;;6.45;100.00
44988;BME280;35735;52.226;21.254;2022-10-31T05:29:34;100811.25;;;6.38;100.00
44988;BME280;35735;52.226;21.254;2022-10-31T05:34:34;100816.41;;;6.30;100.00
44988;BME280;35735;52.226;21.254;2022-10-31T05:39:35;100827.91;;;6.26;100.00
44988;BME280;35735;52.226;21.254;2022-10-31T05:44:35;100823.25;;;6.18;100.00
44988;BME280;35735;52.226;21.254;2022-10-31T05:49:36;100827.59;;;6.12;100.00
44988;BME280;35735;52.226;21.254;2022-10-31T05:54:36;100828.69;;;6.21;100.00
44988;BME280;35735;52.226;21.254;2022-10-31T05:59:37;100829.97;;;6.37;100.00
44988;BME280;35735;52.226;21.254;2022-10-31T06:04:38;100842.09;;;6.21;100.00
44988;BME280;35735;52.226;21.254;2022-10-31T06:09:38;100841.97;;;6.16;100.00
44988;BME280;35735;52.226;21.254;2022-10-31T06:14:39;100842.25;;;5.92;100.00
44988;BME280;35735;52.226;21.254;2022-10-31T06:19:39;100836.38;;;6.05;100.00
44988;BME280;35735;52.226;21.254;2022-10-31T06:24:40;100837.47;;;6.14;100.00
44988;BME280;35735;52.226;21.254;2022-10-31T06:29:41;100833.84;;;6.11;100.00
44988;BME280;35735;52.226;21.254;2022-10-31T06:34:42;100828.97;;;6.33;100.00
44988;BME280;35735;52.226;21.254;2022-10-31T06:39:42;100829.47;;;6.55;100.00
44988;BME280;35735;52.226;21.254;2022-10-31T06:44:43;100840.34;;;6.61;100.00
44988;BME280;35735;52.226;21.254;2022-10-31T06:49:44;100853.75;;;6.61;100.00
44988;BME280;35735;52.226;21.254;2022-10-31T06:54:44;100849.53;;;6.71;100.00
44988;BME280;35735;52.226;21.254;2022-10-31T06:59:45;100849.97;;;6.91;100.00
44988;BME280;35735;52.226;21.254;2022-10-31T07:04:46;100860.16;;;7.07;100.00
44988;BME280;35735;52.226;21.254;2022-10-31T07:09:51;100856.16;;;7.31;100.00
44988;BME280;35735;52.226;21.254;2022-10-31T07:14:51;100854.91;;;7.57;100.00
44988;BME280;35735;52.226;21.254;2022-10-31T07:19:52;100849.22;;;7.89;100.00
44988;BME280;35735;52.226;21.254;2022-10-31T07:24:52;100849.78;;;8.23;100.00
44988;BME280;35735;52.226;21.254;2022-10-31T07:29:53;100854.75;;;8.50;100.00
44988;BME280;35735;52.226;21.254;2022-10-31T07:34:54;100855.03;;;8.70;100.00
44988;BME280;35735;52.226;21.254;2022-10-31T07:39:54;100849.09;;;8.96;100.00
44988;BME280;35735;52.226;21.254;2022-10-31T07:44:55;100862.03;;;9.25;100.00
44988;BME280;35735;52.226;21.254;2022-10-31T07:49:55;100865.09;;;9.56;100.00
44988;BME280;35735;52.226;21.254;2022-10-31T07:54:56;100863.56;;;9.79;100.00
44988;BME280;35735;52.226;21.254;2022-10-31T07:59:56;100855.72;;;10.06;100.00
44988;BME280;35735;52.226;21.254;2022-10-31T08:04:57;100854.09;;;10.28;100.00
44988;BME280;35735;52.226;21.254;2022-10-31T08:09:57;100851.63;;;10.52;100.00
44988;BME280;35735;52.226;21.254;2022-10-31T08:14:58;100852.66;;;10.71;100.00
44988;BME280;35735;52.226;21.254;2022-10-31T08:19:58;100850.97;;;10.92;100.00
44988;BME280;35735;52.226;21.254;2022-10-31T08:24:59;100852.00;;;11.20;100.00
44988;BME280;35735;52.226;21.254;2022-10-31T08:29:59;100864.72;;;11.43;100.00
44988;BME280;35735;52.226;21.254;2022-10-31T08:35:00;100866.56;;;11.62;100.00
44988;BME280;35735;52.226;21.254;2022-10-31T08:40:01;100876.53;;;11.82;100.00
44988;BME280;35735;52.226;21.254;2022-10-31T08:45:01;100872.09;;;11.96;100.00
44988;BME280;35735;52.226;21.254;2022-10-31T08:50:02;100878.41;;;12.17;100.00
44988;BME280;35735;52.226;21.254;2022-10-31T08:55:03;100877.50;;;12.42;100.00
44988;BME280;35735;52.226;21.254;2022-10-31T09:00:05;100878.38;;;12.71;100.00
44988;BME280;35735;52.226;21.254;2022-10-31T09:05:06;100881.94;;;12.94;100.00
44988;BME280;35735;52.226;21.254;2022-10-31T09:10:07;100880.97;;;13.25;100.00
44988;BME280;35735;52.226;21.254;2022-10-31T09:15:08;100889.94;;;13.51;100.00
44988;BME280;35735;52.226;21.254;2022-10-31T09:20:09;100888.88;;;13.77;100.00
44988;BME280;35735;52.226;21.254;2022-10-31T09:25:10;100893.25;;;14.03;100.00
44988;BME280;35735;52.226;21.254;2022-10-31T09:30:10;100891.31;;;14.23;100.00
44988;BME280;35735;52.226;21.254;2022-10-31T09:35:11;100887.47;;;14.46;100.00
44988;BME280;35735;52.226;21.254;2022-10-31T09:40:12;100892.81;;;14.61;100.00
44988;BME280;35735;52.226;21.254;2022-10-31T09:45:21;100889.03;;;14.79;100.00
44988;BME280;35735;52.226;21.254;2022-10-31T09:55:44;100881.31;;;15.22;100.00
44988;BME280;35735;52.226;21.254;2022-10-31T10:00:47;100883.09;;;15.24;100.00
44988;BME280;35735;52.226;21.254;2022-10-31T10:05:54;100889.25;;;15.40;100.00
44988;BME280;35735;52.226;21.254;2022-10-31T10:22:27;100884.00;;;15.96;100.00
44988;BME280;35735;52.226;21.254;2022-10-31T10:33:09;100873.41;;;16.34;100.00
44988;BME280;35735;52.226;21.254;2022-10-31T10:38:24;100868.66;;;16.46;100.00
44988;BME280;35735;52.226;21.254;2022-10-31T10:43:34;100861.22;;;16.56;100.00
44988;BME280;35735;52.226;21.254;2022-10-31T10:48:55;100855.66;;;16.64;100.00
44988;BME280;35735;52.226;21.254;2022-10-31T10:59:36;100852.59;;;16.81;100.00
44988;BME280;35735;52.226;21.254;2022-10-31T11:04:39;100860.66;;;16.89;100.00
44988;BME280;35735;52.226;21.254;2022-10-31T11:09:40;100862.41;;;16.93;100.00
44988;BME280;35735;52.226;21.254;2022-10-31T11:14:47;100864.06;;;17.00;100.00
44988;BME280;35735;52.226;21.254;2022-10-31T11:30:21;100860.00;;;17.22;100.00
44988;BME280;35735;52.226;21.254;2022-10-31T11:35:24;100858.13;;;17.25;100.00
44988;BME280;35735;52.226;21.254;2022-10-31T11:40:26;100854.63;;;17.19;100.00
44988;BME280;35735;52.226;21.254;2022-10-31T11:45:31;100849.97;;;17.25;100.00
44988;BME280;35735;52.226;21.254;2022-10-31T11:50:37;100848.13;;;17.25;100.00
44988;BME280;35735;52.226;21.254;2022-10-31T11:55:40;100840.03;;;17.20;100.00
44988;BME280;35735;52.226;21.254;2022-10-31T12:00:49;100841.84;;;17.21;100.00
44988;BME280;35735;52.226;21.254;2022-10-31T12:11:36;100847.41;;;17.15;100.00
44988;BME280;35735;52.226;21.254;2022-10-31T12:16:55;100849.38;;;17.07;100.00
44988;BME280;35735;52.226;21.254;2022-10-31T12:22:06;100843.06;;;17.05;100.00
44988;BME280;35735;52.226;21.254;2022-10-31T12:33:41;100836.75;;;17.03;100.00
44988;BME280;35735;52.226;21.254;2022-10-31T12:39:20;100826.91;;;16.96;100.00
44988;BME280;35735;52.226;21.254;2022-10-31T12:44:58;100827.94;;;16.89;100.00
44988;BME280;35735;52.226;21.254;2022-10-31T12:50:22;100816.97;;;16.92;100.00
44988;BME280;35735;52.226;21.254;2022-10-31T12:56:04;100820.59;;;16.92;100.00
44988;BME280;35735;52.226;21.254;2022-10-31T13:01:15;100822.44;;;16.92;100.00
44988;BME280;35735;52.226;21.254;2022-10-31T13:06:27;100818.84;;;16.90;100.00
44988;BME280;35735;52.226;21.254;2022-10-31T13:11:37;100829.69;;;16.93;100.00
44988;BME280;35735;52.226;21.254;2022-10-31T13:16:44;100809.59;;;16.97;100.00
44988;BME280;35735;52.226;21.254;2022-10-31T13:27:14;100816.94;;;16.93;100.00
44988;BME280;35735;52.226;21.254;2022-10-31T13:32:20;100813.37;;;16.91;100.00
44988;BME280;35735;52.226;21.254;2022-10-31T13:37:39;100812.53;;;16.88;100.00
44988;BME280;35735;52.226;21.254;2022-10-31T13:42:58;100818.97;;;16.80;100.00
44988;BME280;35735;52.226;21.254;2022-10-31T13:58:26;100821.00;;;16.71;100.00
44988;BME280;35735;52.226;21.254;2022-10-31T14:03:28;100817.31;;;16.73;100.00
44988;BME280;35735;52.226;21.254;2022-10-31T14:08:33;100822.78;;;16.72;100.00
44988;BME280;35735;52.226;21.254;2022-10-31T14:13:38;100808.56;;;16.56;100.00
44988;BME280;35735;52.226;21.254;2022-10-31T14:18:50;100808.75;;;16.45;100.00
44988;BME280;35735;52.226;21.254;2022-10-31T14:23:57;100810.72;;;16.35;100.00
44988;BME280;35735;52.226;21.254;2022-10-31T14:29:00;100807.19;;;16.30;100.00
44988;BME280;35735;52.226;21.254;2022-10-31T14:34:26;100802.72;;;16.27;100.00
44988;BME280;35735;52.226;21.254;2022-10-31T14:40:04;100808.41;;;16.12;100.00
44988;BME280;35735;52.226;21.254;2022-10-31T14:45:31;100804.13;;;15.97;100.00
44988;BME280;35735;52.226;21.254;2022-10-31T14:50:53;100804.13;;;15.97;100.00
44988;BME280;35735;52.226;21.254;2022-10-31T14:55:56;100808.69;;;15.95;100.00
44988;BME280;35735;52.226;21.254;2022-10-31T15:00:57;100808.66;;;15.97;100.00
44988;BME280;35735;52.226;21.254;2022-10-31T15:06:05;100815.94;;;15.96;100.00
44988;BME280;35735;52.226;21.254;2022-10-31T15:16:20;100822.59;;;15.73;100.00
44988;BME280;35735;52.226;21.254;2022-10-31T15:21:24;100826.47;;;15.57;100.00
44988;BME280;35735;52.226;21.254;2022-10-31T15:26:37;100818.47;;;15.43;100.00
44988;BME280;35735;52.226;21.254;2022-10-31T15:31:39;100824.09;;;15.31;100.00
44988;BME280;35735;52.226;21.254;2022-10-31T15:36:49;100820.63;;;15.19;100.00
44988;BME280;35735;52.226;21.254;2022-10-31T15:41:52;100831.66;;;15.06;100.00
44988;BME280;35735;52.226;21.254;2022-10-31T15:47:05;100821.97;;;14.80;100.00
44988;BME280;35735;52.226;21.254;2022-10-31T15:52:23;100816.78;;;14.55;100.00
44988;BME280;35735;52.226;21.254;2022-10-31T15:57:26;100828.75;;;14.34;100.00
44988;BME280;35735;52.226;21.254;2022-10-31T16:02:27;100833.37;;;14.21;100.00
44988;BME280;35735;52.226;21.254;2022-10-31T16:07:28;100838.03;;;14.10;100.00
44988;BME280;35735;52.226;21.254;2022-10-31T16:12:41;100850.72;;;14.03;100.00
44988;BME280;35735;52.226;21.254;2022-10-31T16:17:46;100842.66;;;13.93;100.00
44988;BME280;35735;52.226;21.254;2022-10-31T16:22:50;100843.63;;;13.81;100.00
44988;BME280;35735;52.226;21.254;2022-10-31T16:27:53;100856.38;;;13.68;100.00
44988;BME280;35735;52.226;21.254;2022-10-31T16:32:59;100859.16;;;13.59;100.00
44988;BME280;35735;52.226;21.254;2022-10-31T16:38:00;100854.72;;;13.44;100.00
44988;BME280;35735;52.226;21.254;2022-10-31T16:43:00;100853.84;;;13.32;100.00
44988;BME280;35735;52.226;21.254;2022-10-31T16:48:06;100868.31;;;13.21;100.00
44988;BME280;35735;52.226;21.254;2022-10-31T16:53:11;100869.25;;;13.15;100.00
44988;BME280;35735;52.226;21.254;2022-10-31T16:58:23;100862.97;;;12.99;100.00
44988;BME280;35735;52.226;21.254;2022-10-31T17:03:25;100871.16;;;12.88;100.00
44988;BME280;35735;52.226;21.254;2022-10-31T17:08:26;100868.44;;;12.77;100.00
44988;BME280;35735;52.226;21.254;2022-10-31T17:13:29;100860.34;;;12.68;100.00
44988;BME280;35735;52.226;21.254;2022-10-31T17:18:31;100863.94;;;12.64;100.00
44988;BME280;35735;52.226;21.254;2022-10-31T17:23:31;100863.94;;;12.61;100.00
44988;BME280;35735;52.226;21.254;2022-10-31T17:28:32;100865.75;;;12.59;100.00
44988;BME280;35735;52.226;21.254;2022-10-31T17:33:33;100864.88;;;12.57;100.00
44988;BME280;35735;52.226;21.254;2022-10-31T17:38:33;100871.22;;;12.51;100.00
44988;BME280;35735;52.226;21.254;2022-10-31T17:43:34;100868.50;;;12.50;100.00
44988;BME280;35735;52.226;21.254;2022-10-31T17:48:35;100873.91;;;12.48;100.00
44988;BME280;35735;52.226;21.254;2022-10-31T17:53:36;100867.59;;;12.35;100.00
44988;BME280;35735;52.226;21.254;2022-10-31T17:58:37;100863.06;;;12.37;100.00
44988;BME280;35735;52.226;21.254;2022-10-31T18:03:38;100856.75;;;12.40;100.00
44988;BME280;35735;52.226;21.254;2022-10-31T18:08:39;100873.00;;;12.38;100.00
44988;BME280;35735;52.226;21.254;2022-10-31T18:13:40;100869.38;;;12.42;100.00
44988;BME280;35735;52.226;21.254;2022-10-31T18:18:41;100861.25;;;12.49;100.00
44988;BME280;35735;52.226;21.254;2022-10-31T18:23:42;100855.84;;;12.52;100.00
44988;BME280;35735;52.226;21.254;2022-10-31T18:28:42;100867.56;;;12.52;100.00
44988;BME280;35735;52.226;21.254;2022-10-31T18:33:43;100863.06;;;12.47;100.00
44988;BME280;35735;52.226;21.254;2022-10-31T18:38:44;100854.06;;;12.38;100.00
44988;BME280;35735;52.226;21.254;2022-10-31T18:43:44;100854.06;;;12.35;100.00
44988;BME280;35735;52.226;21.254;2022-10-31T18:48:45;100854.03;;;12.29;100.00
44988;BME280;35735;52.226;21.254;2022-10-31T18:53:50;100846.84;;;12.25;100.00
44988;BME280;35735;52.226;21.254;2022-10-31T18:58:51;100854.97;;;12.25;100.00
44988;BME280;35735;52.226;21.254;2022-10-31T19:03:53;100863.97;;;12.27;100.00
44988;BME280;35735;52.226;21.254;2022-10-31T19:08:59;100863.09;;;12.27;100.00
44988;BME280;35735;52.226;21.254;2022-10-31T19:14:01;100866.69;;;12.30;100.00
44988;BME280;35735;52.226;21.254;2022-10-31T19:19:01;100853.16;;;12.30;100.00
44988;BME280;35735;52.226;21.254;2022-10-31T19:24:02;100844.13;;;12.33;100.00
44988;BME280;35735;52.226;21.254;2022-10-31T19:29:03;100836.03;;;12.28;100.00
44988;BME280;35735;52.226;21.254;2022-10-31T19:34:04;100841.44;;;12.28;100.00
44988;BME280;35735;52.226;21.254;2022-10-31T19:39:04;100841.41;;;12.34;100.00
44988;BME280;35735;52.226;21.254;2022-10-31T19:44:05;100838.69;;;12.34;100.00
44988;BME280;35735;52.226;21.254;2022-10-31T19:49:05;100838.69;;;12.34;100.00
44988;BME280;35735;52.226;21.254;2022-10-31T19:54:06;100836.94;;;12.36;100.00
44988;BME280;35735;52.226;21.254;2022-10-31T19:59:07;100838.72;;;12.31;100.00
44988;BME280;35735;52.226;21.254;2022-10-31T20:04:07;100845.94;;;12.31;100.00
44988;BME280;35735;52.226;21.254;2022-10-31T20:09:10;100845.03;;;12.24;100.00
44988;BME280;35735;52.226;21.254;2022-10-31T20:14:14;100839.63;;;12.13;100.00
44988;BME280;35735;52.226;21.254;2022-10-31T20:19:15;100827.91;;;12.20;100.00
44988;BME280;35735;52.226;21.254;2022-10-31T20:24:16;100829.69;;;12.12;100.00
44988;BME280;35735;52.226;21.254;2022-10-31T20:29:16;100812.53;;;11.99;100.00
44988;BME280;35735;52.226;21.254;2022-10-31T20:34:17;100812.56;;;11.96;100.00
44988;BME280;35735;52.226;21.254;2022-10-31T20:39:17;100820.63;;;11.89;100.00
44988;BME280;35735;52.226;21.254;2022-10-31T20:44:18;100817.91;;;11.84;100.00
44988;BME280;35735;52.226;21.254;2022-10-31T20:49:18;100812.53;;;11.78;100.00
44988;BME280;35735;52.226;21.254;2022-10-31T20:54:19;100810.69;;;11.67;100.00
44988;BME280;35735;52.226;21.254;2022-10-31T20:59:19;100809.78;;;11.64;100.00
44988;BME280;35735;52.226;21.254;2022-10-31T21:04:20;100819.66;;;11.53;100.00
44988;BME280;35735;52.226;21.254;2022-10-31T21:09:21;100818.75;;;11.47;100.00
44988;BME280;35735;52.226;21.254;2022-10-31T21:14:21;100820.53;;;11.44;100.00
44988;BME280;35735;52.226;21.254;2022-10-31T21:19:22;100819.66;;;11.42;100.00
44988;BME280;35735;52.226;21.254;2022-10-31T21:24:23;100808.84;;;11.42;100.00
44988;BME280;35735;52.226;21.254;2022-10-31T21:29:23;100813.31;;;11.37;100.00
44988;BME280;35735;52.226;21.254;2022-10-31T21:34:24;100807.91;;;11.35;100.00
44988;BME280;35735;52.226;21.254;2022-10-31T21:39:24;100806.09;;;11.34;100.00
44988;BME280;35735;52.226;21.254;2022-10-31T21:44:25;100803.41;;;11.37;100.00
44988;BME280;35735;52.226;21.254;2022-10-31T21:49:25;100800.72;;;11.37;100.00
44988;BME280;35735;52.226;21.254;2022-10-31T21:54:26;100798.00;;;11.37;100.00
44988;BME280;35735;52.226;21.254;2022-10-31T21:59:27;100799.81;;;11.37;100.00
44988;BME280;35735;52.226;21.254;2022-10-31T22:04:27;100789.91;;;11.42;100.00
44988;BME280;35735;52.226;21.254;2022-10-31T22:09:28;100785.41;;;11.41;100.00
44988;BME280;35735;52.226;21.254;2022-10-31T22:14:28;100783.63;;;11.49;100.00
44988;BME280;35735;52.226;21.254;2022-10-31T22:19:29;100780.03;;;11.52;100.00
44988;BME280;35735;52.226;21.254;2022-10-31T22:24:29;100782.75;;;11.55;100.00
44988;BME280;35735;52.226;21.254;2022-10-31T22:29:30;100774.59;;;11.59;100.00
44988;BME280;35735;52.226;21.254;2022-10-31T22:34:31;100780.97;;;11.64;100.00
44988;BME280;35735;52.226;21.254;2022-10-31T22:39:31;100771.03;;;11.70;100.00
44988;BME280;35735;52.226;21.254;2022-10-31T22:44:32;100774.66;;;11.75;100.00
44988;BME280;35735;52.226;21.254;2022-10-31T22:49:32;100768.34;;;11.71;100.00
44988;BME280;35735;52.226;21.254;2022-10-31T22:54:33;100769.25;;;11.76;100.00
44988;BME280;35735;52.226;21.254;2022-10-31T22:59:33;100762.91;;;11.77;100.00
44988;BME280;35735;52.226;21.254;2022-10-31T23:04:34;100758.44;;;11.72;100.00
44988;BME280;35735;52.226;21.254;2022-10-31T23:09:34;100762.03;;;11.77;100.00
44988;BME280;35735;52.226;21.254;2022-10-31T23:14:35;100752.09;;;11.80;100.00
44988;BME280;35735;52.226;21.254;2022-10-31T23:19:36;100753.00;;;11.70;100.00
44988;BME280;35735;52.226;21.254;2022-10-31T23:24:37;100745.78;;;11.71;100.00
44988;BME280;35735;52.226;21.254;2022-10-31T23:29:48;100754.78;;;11.73;100.00
44988;BME280;35735;52.226;21.254;2022-10-31T23:34:58;100760.22;;;11.76;100.00
44988;BME280;35735;52.226;21.254;2022-10-31T23:40:00;100756.63;;;11.78;100.00
44988;BME280;35735;52.226;21.254;2022-10-31T23:45:01;100754.81;;;11.82;100.00
44988;BME280;35735;52.226;21.254;2022-10-31T23:50:01;100751.22;;;11.83;100.00
44988;BME280;35735;52.226;21.254;2022-10-31T23:55:02;100745.81;;;11.77;100.00
